Accueil
METAR-TAF:

METAR-TAF

Aéroports :

Aéroport Agen-La Garenne

Agen, France

latitude: 44-11N, longitude: 000-36E, altitude: 61 m

Observation

Le bulletin a été fait il y a 35 minutes, à 18:30 UTC
Vent calme
Température 3°C
Humidité 87%
Pression 1006 hPa
Visibilité: 1200 m

METAR: LFBA 201830Z AUTO 00000KT 8000 1200 R29/1000D NSC 03/01 Q1006 NOSIG

Heure: 20:05 (19:05 UTC)

Prévision

Le bulletin a été fait il y a 2 heures et 5 minutes, à 17:00 UTC
Prévision valable du 20 à 18 UTC au 21 à 03 UTC
Vent 6 kt de est/sud-est
Visibilité 10 km ou plus
pas de nuages en-dessous de 1500 mètres et pas de cumulonimbus.
Probabilité 30%
du 21 à 00 UTC au 21 à 03 UTC
Visibilité: 0800 m
Ciel couvert à une hauteur de 200 ft
brouillard

TAF: LFBA 201700Z 2018/2103 11006KT CAVOK PROB30 2100/2103 0800 FG OVC002

Observations et prévisions météorologiques de plus de 4000 aéroports (messages METAR et TAF).

Les stations disponibles sont représentées par des disques jaunes et rouges sur la carte.

Passer la souris dessus pour voir le nom de la station.

Cliquer dessus pour voir les observations et prévisions météorologiques.

Pour changer de carte: cliquez sur les boutons verts avec une croix noire pour zoomer, sur le bouton vert avec un tiret pour effectuer un zoom arrière, ou sur les flèches vertes pour les cartes adjacentes.


METAR-TAF: